Time;durP1;ratioP1;P1;durP2;ratioP2;P2;SDS_P1;SDS_P2;PMS_P1;PMS_P2;Temp;Humidity;BMP_temperature;BMP_pressure;BME280_temperature;BME280_humidity;BME280_pressure;Samples;Min_cycle;Max_cycle;Signal;HPM_P1;HPM_P2
2021/07/17 00:00:07;;;;;;;;;13.50;13.00;;;;;23.72;46.19;101673.84;5096337;27;70894;-73
2021/07/17 00:02:32;;;;;;;;;13.75;13.75;;;;;23.73;46.64;101682.69;5097036;27;45407;-72
2021/07/17 00:04:58;;;;;;;;;14.75;14.50;;;;;23.72;46.00;101683.59;5079889;28;52224;-72
2021/07/17 00:07:24;;;;;;;;;17.50;14.25;;;;;23.71;46.49;101679.19;5080009;28;45500;-72
2021/07/17 00:09:50;;;;;;;;;13.50;13.00;;;;;23.66;46.43;101682.00;5079878;27;47248;-72
2021/07/17 00:12:15;;;;;;;;;13.00;13.00;;;;;23.67;46.41;101676.63;5080252;28;45463;-73
2021/07/17 00:14:40;;;;;;;;;17.25;15.50;;;;;23.66;46.65;101680.22;5062089;28;66221;-72
2021/07/17 00:17:06;;;;;;;;;14.50;12.25;;;;;23.66;46.15;101690.88;5062762;28;61980;-72
2021/07/17 00:19:31;;;;;;;;;14.50;14.00;;;;;23.64;46.73;101681.19;5079673;28;47079;-72
2021/07/17 00:21:57;;;;;;;;;17.00;14.75;;;;;23.62;46.43;101689.19;5062907;28;57533;-72
2021/07/17 00:24:22;;;;;;;;;14.00;12.50;;;;;23.57;46.25;101676.91;5061982;28;56045;-72
2021/07/17 00:26:47;;;;;;;;;13.25;13.00;;;;;23.61;46.64;101689.25;5079810;28;45612;-72
2021/07/17 00:29:13;;;;;;;;;17.00;15.75;;;;;23.59;46.79;101681.31;5096524;27;45261;-73
2021/07/17 00:31:38;;;;;;;;;13.25;13.00;;;;;23.57;46.68;101680.47;5062193;28;63946;-72
2021/07/17 00:34:04;;;;;;;;;18.50;15.00;;;;;23.55;46.63;101682.31;5080020;28;45346;-72
2021/07/17 00:36:29;;;;;;;;;15.25;14.50;;;;;23.53;46.81;101678.78;5096191;27;58055;-72
2021/07/17 00:38:54;;;;;;;;;18.00;15.75;;;;;23.53;46.90;101678.78;5079574;28;48393;-73
2021/07/17 00:41:20;;;;;;;;;17.25;16.25;;;;;23.57;46.32;101677.78;5079332;28;45955;-72
2021/07/17 00:43:45;;;;;;;;;16.25;16.00;;;;;23.58;47.24;101684.00;5079518;28;45423;-72
2021/07/17 00:46:14;;;;;;;;;16.50;13.50;;;;;23.55;46.32;101670.78;5080413;27;52854;-72
2021/07/17 00:48:39;;;;;;;;;14.50;12.00;;;;;23.55;46.80;101676.97;5096228;27;56062;-72
2021/07/17 00:51:05;;;;;;;;;16.75;14.00;;;;;23.50;46.54;101673.56;5079112;28;45460;-72
2021/07/17 00:53:30;;;;;;;;;16.25;13.25;;;;;23.44;46.68;101679.06;5079543;28;45376;-72
2021/07/17 00:55:56;;;;;;;;;16.25;14.25;;;;;23.40;47.11;101674.75;5087326;27;45804;-72
2021/07/17 00:58:22;;;;;;;;;17.75;16.25;;;;;23.40;46.94;101677.41;5085959;27;57093;-72
2021/07/17 01:00:49;;;;;;;;;17.50;15.00;;;;;23.36;46.98;101681.06;5096304;27;45787;-72
2021/07/17 01:03:14;;;;;;;;;12.25;12.00;;;;;23.35;46.92;101685.53;5113629;27;45263;-72
2021/07/17 01:05:40;;;;;;;;;21.50;16.50;;;;;23.33;46.93;101692.69;5113365;27;49961;-72
2021/07/17 01:08:05;;;;;;;;;19.50;18.00;;;;;23.30;47.06;101687.47;5096498;27;45325;-72
2021/07/17 01:10:30;;;;;;;;;16.75;16.75;;;;;23.31;47.66;101688.34;5079050;28;45882;-72
2021/07/17 01:12:56;;;;;;;;;18.50;17.50;;;;;23.28;47.31;101685.75;5096373;27;45277;-72
2021/07/17 01:15:21;;;;;;;;;16.75;16.25;;;;;23.32;47.28;101685.63;5079109;27;45520;-72
2021/07/17 01:17:47;;;;;;;;;21.75;18.75;;;;;23.31;47.24;101681.22;5079173;28;46309;-72
2021/07/17 01:20:18;;;;;;;;;18.50;17.50;;;;;23.31;47.55;101685.66;5078945;27;45423;-72
2021/07/17 01:22:43;;;;;;;;;22.00;17.75;;;;;23.34;47.42;101677.59;5079028;27;45388;-72
2021/07/17 01:25:15;;;;;;;;;19.00;15.50;;;;;23.35;47.20;101689.97;5078822;27;45483;-72
2021/07/17 01:27:41;;;;;;;;;16.75;14.50;;;;;23.32;47.14;101685.63;5079031;27;46189;-72
2021/07/17 01:30:13;;;;;;;;;20.00;18.25;;;;;23.31;47.21;101678.56;5079000;28;45260;-72
2021/07/17 01:32:39;;;;;;;;;19.00;17.75;;;;;23.32;47.43;101687.41;5079398;27;45357;-72
2021/07/17 01:35:05;;;;;;;;;21.50;19.00;;;;;23.28;47.22;101678.66;5078825;27;45456;-72
2021/07/17 01:37:30;;;;;;;;;17.75;16.50;;;;;23.33;47.10;101673.19;5078718;27;45382;-72
2021/07/17 01:39:55;;;;;;;;;19.75;14.75;;;;;23.28;47.47;101656.44;5061559;28;49390;-72
2021/07/17 01:42:21;;;;;;;;;15.50;13.50;;;;;23.30;47.15;101666.16;5078818;28;45276;-72
2021/07/17 01:44:46;;;;;;;;;17.25;15.50;;;;;23.26;47.25;101663.59;5095476;27;59303;-72
2021/07/17 01:47:13;;;;;;;;;14.25;13.50;;;;;23.22;47.43;101678.81;5078569;28;47172;-72
2021/07/17 01:49:38;;;;;;;;;17.50;16.75;;;;;23.22;47.98;101672.63;5062116;28;45342;-72
2021/07/17 01:52:04;;;;;;;;;18.50;15.00;;;;;23.22;48.05;101669.94;5070810;27;45461;-72
2021/07/17 01:54:33;;;;;;;;;19.75;15.00;;;;;23.21;47.79;101671.75;5078356;27;45497;-72
2021/07/17 01:57:00;;;;;;;;;16.50;16.00;;;;;23.24;47.93;101670.78;5095217;27;46683;-72
2021/07/17 01:59:26;;;;;;;;;15.00;15.00;;;;;23.25;47.75;101668.06;5095551;27;45294;-72
2021/07/17 02:01:51;;;;;;;;;14.75;13.25;;;;;23.18;48.11;101662.94;5079908;27;45318;-72
2021/07/17 02:04:16;;;;;;;;;18.50;16.75;;;;;23.19;48.01;101670.03;5079568;27;54737;-72
2021/07/17 02:06:42;;;;;;;;;15.00;13.50;;;;;23.18;48.08;101671.81;5077811;28;60662;-72
2021/07/17 02:09:07;;;;;;;;;14.25;14.25;;;;;23.18;47.74;101676.28;5077694;28;64790;-72
2021/07/17 02:11:32;;;;;;;;;16.75;14.50;;;;;23.18;48.25;101670.94;5064864;28;47834;-73
2021/07/17 02:13:58;;;;;;;;;14.25;13.50;;;;;23.11;47.63;101676.47;5082689;27;60286;-72
2021/07/17 02:16:23;;;;;;;;;17.75;13.25;;;;;23.08;48.36;101671.19;5082918;27;51115;-72
2021/07/17 02:18:49;;;;;;;;;19.25;14.50;;;;;23.08;48.11;101675.66;5082253;28;45422;-72
2021/07/17 02:21:15;;;;;;;;;17.50;16.00;;;;;23.06;48.46;101673.03;5083181;28;45460;-72
2021/07/17 02:23:40;;;;;;;;;15.00;15.00;;;;;23.05;48.58;101670.44;5083086;27;45218;-72
2021/07/17 02:26:06;;;;;;;;;14.50;14.50;;;;;23.09;48.42;101672.06;5080963;28;60054;-72
2021/07/17 02:28:32;;;;;;;;;16.25;15.50;;;;;23.10;48.58;101681.81;5048168;28;45396;-72
2021/07/17 02:30:57;;;;;;;;;15.50;14.00;;;;;23.07;48.24;101672.13;5098236;27;57271;-72
2021/07/17 02:33:22;;;;;;;;;17.75;17.50;;;;;23.08;48.36;101676.53;5081855;28;45250;-72
2021/07/17 02:35:48;;;;;;;;;15.00;15.00;;;;;23.12;48.12;101678.19;5081488;28;46044;-72
2021/07/17 02:38:13;;;;;;;;;15.50;14.50;;;;;23.11;48.61;101668.47;5064266;28;64321;-72
2021/07/17 02:40:39;;;;;;;;;15.50;14.50;;;;;23.07;48.35;101668.59;5098604;27;45318;-73
2021/07/17 02:43:04;;;;;;;;;17.50;14.00;;;;;23.05;48.40;101665.09;5063552;28;68369;-72
2021/07/17 02:45:30;;;;;;;;;19.25;16.00;;;;;23.06;48.76;101682.81;5064566;28;45411;-72
2021/07/17 02:47:55;;;;;;;;;17.25;16.00;;;;;23.02;48.57;101675.81;5098720;27;45367;-72
2021/07/17 02:50:21;;;;;;;;;16.75;14.75;;;;;23.02;48.21;101667.81;5081056;28;56599;-72
2021/07/17 02:52:46;;;;;;;;;16.25;15.00;;;;;23.01;48.58;101666.94;5098347;27;45610;-72
2021/07/17 02:55:11;;;;;;;;;17.50;14.50;;;;;23.03;48.70;101672.25;5077602;28;45372;-72
2021/07/17 02:57:37;;;;;;;;;16.75;15.00;;;;;23.03;48.68;101675.81;5094865;27;45221;-72
2021/07/17 03:00:05;;;;;;;;;16.50;14.25;;;;;23.01;48.58;101668.75;5081535;28;45762;-72
2021/07/17 03:02:31;;;;;;;;;13.00;13.00;;;;;22.96;48.83;101666.22;5082514;27;45452;-72
2021/07/17 03:04:56;;;;;;;;;14.25;14.00;;;;;22.95;48.43;101675.13;5063610;28;57278;-72
2021/07/17 03:07:22;;;;;;;;;13.00;13.00;;;;;22.94;48.36;101669.84;5080843;28;55178;-72
2021/07/17 03:09:47;;;;;;;;;18.50;15.50;;;;;22.93;48.60;101676.94;5080399;28;53819;-72
2021/07/17 03:12:12;;;;;;;;;13.75;13.50;;;;;22.94;48.63;101680.50;5080748;28;53140;-72
2021/07/17 03:14:38;;;;;;;;;15.00;14.25;;;;;22.90;49.11;101677.03;5082033;27;45853;-72
2021/07/17 03:17:03;;;;;;;;;17.25;16.00;;;;;22.87;48.82;101677.13;5064125;28;46015;-72
2021/07/17 03:19:29;;;;;;;;;15.25;14.25;;;;;22.88;48.81;101676.22;5080369;28;57089;-72
2021/07/17 03:21:54;;;;;;;;;16.75;15.50;;;;;22.90;48.88;101674.38;5081501;27;59961;-72
2021/07/17 03:24:20;;;;;;;;;18.25;17.50;;;;;22.91;48.86;101681.44;5080665;27;65813;-72
2021/07/17 03:26:45;;;;;;;;;16.25;13.25;;;;;22.90;48.98;101679.69;5098039;27;45251;-72
2021/07/17 03:29:10;;;;;;;;;14.25;13.25;;;;;22.88;48.71;101678.88;5081418;27;61347;-72
2021/07/17 03:31:36;;;;;;;;;15.25;15.25;;;;;22.88;48.77;101673.53;5097074;27;64201;-72
2021/07/17 03:34:01;;;;;;;;;15.50;14.25;;;;;22.73;49.18;101660.59;5063733;28;47289;-72
2021/07/17 03:36:27;;;;;;;;;18.00;13.00;;;;;22.84;49.32;101678.06;5079703;28;70333;-73
2021/07/17 03:38:52;;;;;;;;;15.00;11.75;;;;;22.82;49.28;101681.66;5064046;28;45298;-72
2021/07/17 03:41:18;;;;;;;;;16.25;16.00;;;;;22.84;48.67;101682.47;5079848;28;61436;-72
2021/07/17 03:43:44;;;;;;;;;18.75;16.25;;;;;22.85;49.33;101673.63;5063141;28;48159;-72
2021/07/17 03:46:09;;;;;;;;;19.25;17.75;;;;;22.83;49.09;101678.94;5080339;28;45762;-72
2021/07/17 03:48:35;;;;;;;;;15.75;13.75;;;;;22.69;49.31;101651.84;5063690;28;45366;-72
2021/07/17 03:51:00;;;;;;;;;17.75;15.25;;;;;22.83;49.29;101670.09;5042721;28;66386;-72
2021/07/17 03:53:26;;;;;;;;;16.00;13.50;;;;;22.83;49.42;101670.09;5089181;27;62362;-72
2021/07/17 03:55:51;;;;;;;;;19.00;13.50;;;;;22.80;48.99;101665.72;5076448;28;45247;-72
2021/07/17 03:58:16;;;;;;;;;17.75;15.75;;;;;22.86;49.09;101670.06;5071338;28;45774;-72
2021/07/17 04:00:42;;;;;;;;;17.50;14.00;;;;;22.82;48.84;101669.22;5096365;27;68954;-72
2021/07/17 04:03:07;;;;;;;;;16.75;15.25;;;;;22.87;49.61;101687.78;5079980;28;46192;-72
2021/07/17 04:05:33;;;;;;;;;17.75;14.00;;;;;22.85;49.19;101678.97;5080141;28;45346;-72
2021/07/17 04:07:58;;;;;;;;;15.00;15.00;;;;;22.82;49.14;101684.31;5062786;28;56681;-72
2021/07/17 04:10:23;;;;;;;;;19.75;16.25;;;;;22.76;49.26;101672.06;5096805;27;45490;-72
2021/07/17 04:12:49;;;;;;;;;18.25;15.50;;;;;22.84;49.28;101687.81;5079791;28;46992;-72
2021/07/17 04:15:14;;;;;;;;;19.25;14.50;;;;;22.84;49.55;101690.47;5080774;27;57634;-72
2021/07/17 04:17:40;;;;;;;;;15.25;14.75;;;;;22.82;49.13;101687.84;5080106;28;45494;-73
2021/07/17 04:20:06;;;;;;;;;20.00;15.25;;;;;22.79;48.92;101692.38;5079901;28;45332;-72
2021/07/17 04:22:31;;;;;;;;;16.75;15.25;;;;;22.80;49.30;101683.50;5079773;27;46047;-73
2021/07/17 04:24:57;;;;;;;;;21.50;18.50;;;;;22.76;49.58;101689.78;5062489;28;45267;-72
2021/07/17 04:27:22;;;;;;;;;17.75;16.75;;;;;22.80;49.69;101691.47;5062188;28;61112;-73
2021/07/17 04:29:48;;;;;;;;;17.50;14.50;;;;;22.79;49.72;101685.28;5079362;28;58451;-72
2021/07/17 04:32:13;;;;;;;;;21.00;18.25;;;;;22.78;49.20;101682.66;5078223;28;69431;-72
2021/07/17 04:34:38;;;;;;;;;16.50;16.50;;;;;22.76;49.35;101688.03;5062285;28;56571;-72
2021/07/17 04:37:04;;;;;;;;;15.25;15.00;;;;;22.78;49.24;101688.84;5062900;28;45314;-72
2021/07/17 04:39:30;;;;;;;;;18.25;17.50;;;;;22.75;49.72;101680.06;5079754;27;45184;-72
2021/07/17 04:41:55;;;;;;;;;18.25;17.75;;;;;22.68;49.22;101678.50;5096520;27;46916;-73
2021/07/17 04:44:20;;;;;;;;;21.75;17.00;;;;;22.67;49.30;101685.56;5079348;28;45281;-72
2021/07/17 04:46:46;;;;;;;;;19.50;17.25;;;;;22.65;49.54;101681.22;5079835;28;45540;-72
2021/07/17 04:49:11;;;;;;;;;18.00;15.00;;;;;22.61;49.67;101674.25;5079564;28;45615;-72
2021/07/17 04:51:37;;;;;;;;;16.00;15.00;;;;;22.64;49.54;101682.13;5078833;28;59553;-72
2021/07/17 04:54:02;;;;;;;;;24.75;17.75;;;;;22.64;50.08;101680.34;5078971;28;47732;-72
2021/07/17 04:56:27;;;;;;;;;15.00;14.25;;;;;22.67;49.28;101685.56;5075470;28;56679;-72
2021/07/17 04:58:53;;;;;;;;;18.75;17.25;;;;;22.67;49.25;101696.22;5064668;28;60052;-72
2021/07/17 05:01:18;;;;;;;;;18.00;17.75;;;;;22.69;50.03;101698.88;5044982;28;64016;-72
2021/07/17 05:03:44;;;;;;;;;17.25;15.75;;;;;22.69;49.84;101704.19;5079037;27;45719;-72
2021/07/17 05:06:09;;;;;;;;;22.25;19.25;;;;;22.66;50.11;101694.47;5080745;28;45286;-72
2021/07/17 05:08:35;;;;;;;;;20.00;16.00;;;;;22.67;49.75;101704.22;5079029;28;51037;-72
2021/07/17 05:11:00;;;;;;;;;17.00;15.25;;;;;22.70;50.14;101708.59;5079545;27;64442;-72
2021/07/17 05:13:26;;;;;;;;;20.50;18.25;;;;;22.72;49.58;101714.75;5080252;27;45365;-72
2021/07/17 05:15:51;;;;;;;;;15.00;15.00;;;;;22.73;49.95;101714.69;5080535;27;45330;-72
2021/07/17 05:18:16;;;;;;;;;17.25;16.00;;;;;22.71;49.64;101705.03;5061207;28;66153;-72
2021/07/17 05:20:42;;;;;;;;;16.25;14.25;;;;;22.75;49.63;101706.66;5078990;27;46170;-72
2021/07/17 05:23:08;;;;;;;;;19.25;16.75;;;;;22.78;49.53;101710.16;5078185;28;54829;-73
2021/07/17 05:25:33;;;;;;;;;24.00;18.00;;;;;22.78;49.93;101707.50;5079100;28;45313;-72
2021/07/17 05:27:58;;;;;;;;;19.50;17.50;;;;;22.78;49.74;101703.97;5095725;27;45528;-72
2021/07/17 05:30:24;;;;;;;;;18.25;16.00;;;;;22.77;49.82;101708.41;5078633;28;52994;-73
2021/07/17 05:32:49;;;;;;;;;17.50;15.75;;;;;22.78;49.83;101706.63;5061301;28;61731;-73
2021/07/17 05:35:15;;;;;;;;;19.25;18.25;;;;;22.78;50.03;101706.63;5078784;28;51320;-73
2021/07/17 05:37:40;;;;;;;;;22.50;18.00;;;;;22.77;50.11;101700.41;5078777;28;45496;-73
2021/07/17 05:40:06;;;;;;;;;23.75;18.75;;;;;22.78;49.86;101693.31;5078747;28;45285;-73
2021/07/17 05:42:32;;;;;;;;;18.50;16.75;;;;;22.78;50.54;101688.84;5061795;28;45615;-73
2021/07/17 05:44:57;;;;;;;;;19.00;18.00;;;;;22.87;50.53;101694.88;5080351;28;45341;-73
2021/07/17 05:47:23;;;;;;;;;17.75;16.00;;;;;22.92;49.87;101700.94;5064651;28;65868;-73
2021/07/17 05:49:48;;;;;;;;;19.00;18.50;;;;;22.93;50.00;101694.69;5081905;28;61944;-73
2021/07/17 05:52:13;;;;;;;;;21.75;19.25;;;;;22.94;50.04;101688.50;5074978;28;61616;-73
2021/07/17 05:54:39;;;;;;;;;20.75;20.25;;;;;22.97;49.44;101699.03;5082280;28;45516;-73
2021/07/17 05:57:06;;;;;;;;;18.75;18.00;;;;;22.95;49.96;101685.78;5116316;27;45358;-75
2021/07/17 05:59:31;;;;;;;;;17.75;16.75;;;;;23.02;50.29;101691.78;5066491;28;47047;-76
2021/07/17 06:01:56;;;;;;;;;20.00;17.75;;;;;23.06;50.59;101678.38;5084461;27;45296;-73
2021/07/17 06:04:22;;;;;;;;;21.50;17.50;;;;;23.17;50.39;101699.38;5082402;28;45265;-74
2021/07/17 06:06:48;;;;;;;;;20.00;17.75;;;;;23.23;49.57;101696.53;5081859;28;45488;-82
2021/07/17 06:09:13;;;;;;;;;23.75;18.25;;;;;23.25;49.66;101686.72;5066368;28;45331;-82
2021/07/17 06:11:38;;;;;;;;;22.50;21.50;;;;;23.33;50.04;101697.16;5082834;28;45290;-75
2021/07/17 06:14:04;;;;;;;;;22.75;22.00;;;;;23.45;49.51;101693.25;5083159;28;45298;-83
2021/07/17 06:16:29;;;;;;;;;22.25;20.00;;;;;23.51;49.24;101693.94;5082834;27;55144;-78
2021/07/17 06:18:55;;;;;;;;;20.00;19.00;;;;;23.42;48.94;101681.78;5082559;28;45323;-77
2021/07/17 06:21:20;;;;;;;;;21.50;19.00;;;;;23.58;49.02;101699.97;5082397;27;61471;-79
2021/07/17 06:23:45;;;;;;;;;20.50;16.50;;;;;23.58;48.72;101698.19;5081847;28;45548;-76
2021/07/17 06:26:11;;;;;;;;;18.25;17.00;;;;;23.64;48.51;101697.19;5064302;28;55169;-76
2021/07/17 06:28:37;;;;;;;;;21.00;18.25;;;;;23.62;48.78;101691.88;5081647;28;48754;-76
2021/07/17 06:31:02;;;;;;;;;17.75;16.75;;;;;23.66;49.11;101696.19;5081694;28;45406;-74
2021/07/17 06:33:28;;;;;;;;;21.50;17.00;;;;;23.73;48.58;101704.91;5098496;27;51852;-75
2021/07/17 06:35:53;;;;;;;;;23.50;19.00;;;;;23.69;48.25;101703.22;5081527;28;45488;-76
2021/07/17 06:38:19;;;;;;;;;19.75;17.50;;;;;23.68;48.11;101710.34;5081093;28;58267;-74
2021/07/17 06:40:45;;;;;;;;;21.00;21.00;;;;;23.62;48.03;101709.66;5082490;27;45336;-74
2021/07/17 06:43:10;;;;;;;;;19.25;17.00;;;;;23.61;47.73;101719.44;5083058;27;45305;-73
2021/07/17 06:45:35;;;;;;;;;20.50;18.50;;;;;23.56;48.05;101712.47;5098036;27;59610;-75
2021/07/17 06:48:01;;;;;;;;;20.50;18.50;;;;;23.52;48.17;101716.13;5098686;27;48093;-75
2021/07/17 06:50:26;;;;;;;;;20.75;19.00;;;;;23.44;47.82;101716.34;5097897;27;64819;-74
2021/07/17 06:52:51;;;;;;;;;23.50;20.50;;;;;23.35;48.37;101727.28;5098444;27;45370;-73
2021/07/17 06:55:17;;;;;;;;;24.25;20.25;;;;;23.31;48.02;101730.97;5081524;27;45542;-74
2021/07/17 06:57:45;;;;;;;;;20.00;17.00;;;;;23.24;48.35;101718.72;5082570;28;45525;-74
2021/07/17 07:00:11;;;;;;;;;19.75;18.50;;;;;23.20;48.77;101723.28;5078422;27;45492;-75
2021/07/17 07:02:37;;;;;;;;;19.25;16.25;;;;;23.19;49.17;101723.28;5080855;28;45318;-73
2021/07/17 07:05:04;;;;;;;;;21.50;19.00;;;;;23.18;49.01;101729.53;5082160;27;45333;-73
2021/07/17 07:07:29;;;;;;;;;20.00;20.00;;;;;23.13;48.82;101732.34;5085882;27;46319;-72
2021/07/17 07:09:54;;;;;;;;;21.50;17.25;;;;;23.11;48.96;101732.38;5081914;27;45436;-71
2021/07/17 07:12:20;;;;;;;;;19.00;17.00;;;;;23.15;49.11;101729.63;5081684;27;59475;-69
2021/07/17 07:14:45;;;;;;;;;21.25;17.75;;;;;23.13;49.50;101727.88;5080172;28;67344;-70
2021/07/17 07:17:11;;;;;;;;;21.75;20.75;;;;;23.11;49.55;101731.50;5081423;27;63515;-71
2021/07/17 07:19:36;;;;;;;;;26.75;19.75;;;;;23.11;49.45;101731.50;5082345;27;45313;-70
2021/07/17 07:22:03;;;;;;;;;24.50;21.50;;;;;23.10;50.02;101732.41;5082497;27;45344;-71
2021/07/17 07:24:28;;;;;;;;;18.75;17.75;;;;;23.09;50.52;101739.50;5080663;28;45466;-70
2021/07/17 07:26:56;;;;;;;;;24.50;21.00;;;;;23.17;50.24;101743.75;5081834;27;46411;-71
2021/07/17 07:29:21;;;;;;;;;26.00;24.00;;;;;23.12;49.72;101741.25;5080794;28;45298;-71
2021/07/17 07:31:47;;;;;;;;;27.00;22.75;;;;;23.15;49.67;101756.25;5080645;28;47802;-71
2021/07/17 07:34:12;;;;;;;;;22.00;18.75;;;;;23.11;49.70;101752.81;5080611;28;45530;-71
2021/07/17 07:36:37;;;;;;;;;22.25;20.25;;;;;23.06;49.61;101760.91;5079773;28;71028;-71
2021/07/17 07:39:03;;;;;;;;;24.75;21.50;;;;;23.06;50.04;101752.91;5080538;28;45382;-71
2021/07/17 07:41:28;;;;;;;;;27.50;23.25;;;;;23.04;49.90;101743.22;5080968;27;45484;-72
2021/07/17 07:43:54;;;;;;;;;26.00;19.00;;;;;23.08;50.26;101755.53;5079938;28;57381;-71
2021/07/17 07:46:19;;;;;;;;;21.50;18.75;;;;;23.10;50.35;101759.91;5080443;28;45896;-71
2021/07/17 07:48:45;;;;;;;;;23.00;18.50;;;;;23.12;50.14;101759.88;5063218;28;53596;-72
2021/07/17 07:51:10;;;;;;;;;26.00;21.50;;;;;23.09;49.61;101754.63;5093495;27;45444;-71
2021/07/17 07:53:36;;;;;;;;;25.00;21.50;;;;;23.03;50.07;101747.69;5081003;27;60920;-71
2021/07/17 07:56:02;;;;;;;;;20.75;19.25;;;;;23.15;50.15;101766.91;5081199;28;45873;-72
2021/07/17 07:58:28;;;;;;;;;24.75;19.25;;;;;23.11;49.73;101761.69;5081256;27;45226;-71
2021/07/17 08:00:54;;;;;;;;;23.00;21.50;;;;;23.13;49.88;101757.19;5080477;28;45212;-72
2021/07/17 08:03:20;;;;;;;;;25.00;22.75;;;;;23.16;50.39;101761.53;5080014;28;45510;-72
2021/07/17 08:05:45;;;;;;;;;23.75;21.25;;;;;23.16;50.12;101764.19;5081545;27;46212;-72
2021/07/17 08:08:10;;;;;;;;;21.00;20.25;;;;;23.16;50.29;101766.00;5080316;27;45285;-72
2021/07/17 08:10:36;;;;;;;;;27.00;21.50;;;;;23.16;50.02;101773.97;5079592;28;55973;-72
2021/07/17 08:13:01;;;;;;;;;23.75;22.75;;;;;23.13;49.99;101777.59;5079936;28;45204;-72
2021/07/17 08:15:27;;;;;;;;;22.50;20.00;;;;;23.09;50.02;101771.47;5079896;28;46158;-72
2021/07/17 08:17:52;;;;;;;;;24.00;20.25;;;;;23.09;49.70;101773.25;5080074;28;45398;-72
2021/07/17 08:20:18;;;;;;;;;25.00;23.00;;;;;23.05;50.02;101761.81;5080099;28;45443;-71
2021/07/17 08:22:43;;;;;;;;;24.00;19.50;;;;;23.08;50.18;101767.06;5079994;28;45363;-72
2021/07/17 08:25:09;;;;;;;;;26.50;23.75;;;;;23.07;49.97;101756.47;5062457;28;48169;-72
2021/07/17 08:27:34;;;;;;;;;26.50;24.75;;;;;23.09;50.35;101755.50;5079571;28;45704;-72
2021/07/17 08:30:00;;;;;;;;;21.50;20.50;;;;;23.07;50.25;101752.00;5079598;28;46191;-72
2021/07/17 08:32:25;;;;;;;;;28.25;25.00;;;;;23.09;50.69;101754.63;5079688;28;45410;-72
2021/07/17 08:34:52;;;;;;;;;25.75;23.50;;;;;23.10;50.17;101757.25;5079729;28;45978;-72
2021/07/17 08:37:18;;;;;;;;;21.25;19.25;;;;;23.09;50.07;101758.16;5079462;27;45209;-72
2021/07/17 08:39:44;;;;;;;;;22.00;19.50;;;;;23.13;50.25;101759.84;5079873;28;45312;-72
2021/07/17 08:42:09;;;;;;;;;24.75;24.75;;;;;23.15;50.27;101758.91;5080065;27;57638;-71
2021/07/17 08:44:36;;;;;;;;;23.50;22.25;;;;;23.15;50.57;101765.13;5078492;28;68727;-72
2021/07/17 08:47:02;;;;;;;;;24.50;22.75;;;;;23.15;50.33;101757.13;5079406;27;45321;-72
2021/07/17 08:49:28;;;;;;;;;26.00;24.00;;;;;23.18;50.56;101759.69;5079758;28;45454;-71
2021/07/17 08:51:53;;;;;;;;;23.00;21.25;;;;;23.19;50.15;101763.22;5078308;28;64519;-72
2021/07/17 08:54:19;;;;;;;;;24.75;21.50;;;;;23.21;50.64;101772.09;5048512;28;46096;-73
2021/07/17 08:56:44;;;;;;;;;23.25;21.00;;;;;23.22;50.73;101763.19;5078917;28;49554;-73
2021/07/17 08:59:09;;;;;;;;;21.25;20.75;;;;;23.24;50.72;101766.66;5112446;27;63942;-73
2021/07/17 09:01:35;;;;;;;;;25.00;24.50;;;;;23.23;50.71;101765.78;5079054;28;45662;-73
2021/07/17 09:04:03;;;;;;;;;26.75;24.50;;;;;23.22;50.45;101768.50;5096019;27;46264;-73
2021/07/17 09:06:29;;;;;;;;;24.25;22.50;;;;;23.20;50.15;101757.03;5095767;27;45293;-73
2021/07/17 09:08:54;;;;;;;;;28.50;25.00;;;;;23.24;50.12;101761.34;5080148;27;45166;-73
2021/07/17 09:11:33;;;;;;;;;29.50;27.00;;;;;23.28;50.83;101760.31;5080124;27;45560;-73
2021/07/17 09:13:58;;;;;;;;;23.50;23.50;;;;;23.31;50.61;101753.13;5080316;27;45327;-73
2021/07/17 09:16:24;;;;;;;;;25.75;25.75;;;;;23.32;50.34;101744.22;5079010;28;45463;-73
2021/07/17 09:18:53;;;;;;;;;25.50;24.50;;;;;23.35;50.47;101748.59;5078140;28;65189;-73
2021/07/17 09:21:25;;;;;;;;;27.25;23.25;;;;;23.35;50.52;101746.78;5080266;27;45458;-73
2021/07/17 09:23:54;;;;;;;;;26.50;24.75;;;;;23.36;49.96;101750.34;5079711;27;45467;-73
2021/07/17 09:26:21;;;;;;;;;26.50;22.00;;;;;23.39;50.45;101744.94;5080150;28;45409;-73
2021/07/17 09:28:54;;;;;;;;;25.25;23.75;;;;;23.38;50.53;101735.19;5096161;27;45206;-73
2021/07/17 09:31:20;;;;;;;;;27.25;24.25;;;;;23.48;50.24;101746.47;5078913;28;45500;-73
2021/07/17 09:33:45;;;;;;;;;29.50;25.50;;;;;23.49;50.09;101735.75;5079382;27;67518;-73
2021/07/17 09:36:13;;;;;;;;;25.50;24.00;;;;;23.53;50.15;101749.84;5078335;28;52608;-73
2021/07/17 09:38:39;;;;;;;;;28.25;23.75;;;;;23.54;50.25;101736.47;5062435;28;45549;-73
2021/07/17 09:41:05;;;;;;;;;28.25;22.50;;;;;23.59;50.08;101734.59;5061866;28;45594;-73
2021/07/17 09:43:34;;;;;;;;;27.25;24.50;;;;;23.62;49.64;101736.31;5078775;28;45452;-73
2021/07/17 09:46:01;;;;;;;;;27.75;22.75;;;;;23.65;50.28;101737.09;5078697;28;45473;-73
2021/07/17 09:48:29;;;;;;;;;31.75;24.75;;;;;23.67;50.09;101727.25;5096022;27;45349;-73
2021/07/17 09:50:55;;;;;;;;;30.25;27.00;;;;;23.67;49.78;101732.59;5079627;27;45423;-73
2021/07/17 09:53:38;;;;;;;;;24.25;21.50;;;;;23.68;49.89;101726.34;5078682;28;45501;-73
2021/07/17 09:56:15;;;;;;;;;25.00;23.75;;;;;23.67;50.21;101718.41;5078567;28;45443;-75
2021/07/17 09:58:40;;;;;;;;;25.50;23.25;;;;;23.74;50.17;101733.28;5080568;28;45338;-72
2021/07/17 10:01:23;;;;;;;;;28.50;22.75;;;;;23.79;50.89;101735.81;5096090;27;45306;-77
2021/07/17 10:03:50;;;;;;;;;29.50;26.00;;;;;23.81;50.80;101734.00;5062123;28;46275;-74
2021/07/17 10:06:42;;;;;;;;;28.00;24.00;;;;;23.84;50.81;101733.88;5081087;27;45383;-77
2021/07/17 10:09:22;;;;;;;;;28.75;25.50;;;;;23.82;50.68;101725.94;5078471;28;45456;-81
2021/07/17 10:11:53;;;;;;;;;27.25;24.25;;;;;23.84;51.10;101728.56;5061989;28;45177;-81
2021/07/17 10:14:20;;;;;;;;;28.75;25.75;;;;;23.89;50.33;101731.94;5078249;28;45552;-73
2021/07/17 10:16:47;;;;;;;;;25.25;19.50;;;;;23.87;50.98;101723.13;5078289;27;45300;-75
2021/07/17 10:19:13;;;;;;;;;33.00;30.00;;;;;23.91;50.29;101727.47;5078768;27;45323;-74
2021/07/17 10:21:39;;;;;;;;;28.25;25.50;;;;;23.91;50.32;101738.13;5061425;28;45264;-76
2021/07/17 10:24:05;;;;;;;;;32.75;28.75;;;;;23.90;50.58;101737.25;5077818;28;46137;-74
2021/07/17 10:26:30;;;;;;;;;30.50;27.50;;;;;23.91;50.78;101730.13;5061194;28;45253;-72
2021/07/17 10:29:05;;;;;;;;;26.25;24.50;;;;;23.87;50.19;101728.47;5112463;27;45491;-74
2021/07/17 10:31:31;;;;;;;;;27.25;25.00;;;;;23.91;50.37;101735.47;5081621;27;45231;-75
2021/07/17 10:33:57;;;;;;;;;23.00;21.25;;;;;23.91;50.19;101735.47;5082325;27;48332;-76
2021/07/17 10:36:22;;;;;;;;;26.50;23.00;;;;;23.89;50.30;101730.19;5082634;28;45282;-75
2021/07/17 10:38:49;;;;;;;;;30.25;28.50;;;;;23.94;50.48;101743.34;5064599;28;45326;-72
2021/07/17 10:41:16;;;;;;;;;29.75;25.50;;;;;23.93;50.29;101733.63;5081416;27;45441;-75
2021/07/17 10:43:41;;;;;;;;;31.50;25.75;;;;;23.92;49.75;101731.88;5081399;27;45418;-71
2021/07/17 10:46:25;;;;;;;;;27.00;26.00;;;;;23.88;49.83;101728.41;5082625;27;45425;-72
2021/07/17 10:48:53;;;;;;;;;30.00;26.00;;;;;23.86;50.13;101727.59;5082679;28;45410;-71
2021/07/17 10:51:22;;;;;;;;;29.00;25.25;;;;;23.85;49.97;101728.50;5098579;27;45252;-74
2021/07/17 10:53:53;;;;;;;;;26.75;23.25;;;;;23.84;50.13;101726.75;5082299;28;46433;-70
2021/07/17 10:56:48;;;;;;;;;27.25;24.25;;;;;23.79;50.12;101712.69;5065116;28;45286;-70
2021/07/17 10:59:13;;;;;;;;;32.00;29.00;;;;;23.82;50.07;101722.41;5080197;27;45260;-70
2021/07/17 11:01:57;;;;;;;;;27.50;25.50;;;;;23.83;49.92;101713.50;5082517;28;45550;-71
2021/07/17 11:04:44;;;;;;;;;25.00;24.00;;;;;23.80;50.23;101710.88;5082332;27;45449;-71